Time;durP1;ratioP1;P1;durP2;ratioP2;P2;SDS_P1;SDS_P2;PMS_P1;PMS_P2;Temp;Humidity;BMP_temperature;BMP_pressure;BME280_temperature;BME280_humidity;BME280_pressure;Samples;Min_cycle;Max_cycle;Signal;HPM_P1;HPM_P2
2021/12/17 00:04:27;;;;;;;11.27;7.40;;;;;;;;;;5045780;28;20197;-77
2021/12/17 00:06:53;;;;;;;17.77;10.53;;;;;;;;;;5052016;28;20185;-78
2021/12/17 00:09:18;;;;;;;19.07;10.40;;;;;;;;;;5041231;28;20222;-77
2021/12/17 00:11:43;;;;;;;23.60;10.27;;;;;;;;;;5035669;28;20213;-77
2021/12/17 00:14:10;;;;;;;19.53;11.87;;;;;;;;;;5040256;28;20187;-77
2021/12/17 00:16:39;;;;;;;13.13;7.90;;;;;;;;;;5038601;28;20191;-77
2021/12/17 00:48:55;;;;;;;17.73;10.87;;;;;;;;;;5052777;28;20240;-77
2021/12/17 00:54:35;;;;;;;23.60;13.10;;;;;;;;;;4961667;28;20344;-77
2021/12/17 00:57:08;;;;;;;19.83;11.30;;;;;;;;;;4952225;28;20236;-77
2021/12/17 00:59:33;;;;;;;23.07;12.73;;;;;;;;;;4965276;28;20224;-77
2021/12/17 01:02:00;;;;;;;23.23;13.67;;;;;;;;;;4966492;28;20204;-77
2021/12/17 01:04:25;;;;;;;26.03;14.33;;;;;;;;;;4965002;28;20181;-78
2021/12/17 01:06:51;;;;;;;27.10;13.60;;;;;;;;;;4950122;28;20201;-77
2021/12/17 01:09:17;;;;;;;30.60;14.63;;;;;;;;;;4959559;28;20193;-77
2021/12/17 01:11:43;;;;;;;18.20;10.40;;;;;;;;;;4951810;28;20296;-77
2021/12/17 01:14:09;;;;;;;26.30;14.60;;;;;;;;;;4962725;28;20396;-77
2021/12/17 01:16:35;;;;;;;27.67;14.87;;;;;;;;;;4953553;28;20190;-77
2021/12/17 01:19:12;;;;;;;26.10;14.50;;;;;;;;;;4948556;28;20196;-77
2021/12/17 01:24:12;;;;;;;21.87;12.67;;;;;;;;;;4963444;28;20222;-77
2021/12/17 01:38:40;;;;;;;30.03;15.50;;;;;;;;;;5052386;28;20224;-77
2021/12/17 01:43:13;;;;;;;30.17;15.17;;;;;;;;;;5049428;28;20240;-77
2021/12/17 01:45:40;;;;;;;24.80;13.83;;;;;;;;;;5050382;28;20296;-77
2021/12/17 01:48:11;;;;;;;28.97;13.20;;;;;;;;;;5052009;28;20182;-77
2021/12/17 02:01:43;;;;;;;23.07;11.43;;;;;;;;;;5031357;28;20254;-77
2021/12/17 02:04:08;;;;;;;22.00;11.23;;;;;;;;;;5033425;28;20204;-77
2021/12/17 02:06:37;;;;;;;22.60;13.00;;;;;;;;;;5034215;28;20246;-77
2021/12/17 02:09:11;;;;;;;22.30;13.23;;;;;;;;;;5029263;28;20170;-77
2021/12/17 02:20:22;;;;;;;54.63;14.70;;;;;;;;;;5051381;28;20231;-77
2021/12/17 02:28:45;;;;;;;42.27;14.07;;;;;;;;;;5049368;28;20185;-77
2021/12/17 02:31:24;;;;;;;34.50;13.73;;;;;;;;;;5047760;28;20209;-77
2021/12/17 02:33:49;;;;;;;32.87;13.37;;;;;;;;;;5035233;28;20245;-77
2021/12/17 02:36:18;;;;;;;32.37;12.63;;;;;;;;;;5051484;28;20265;-77
2021/12/17 02:38:44;;;;;;;42.37;13.57;;;;;;;;;;5050799;28;20178;-77
2021/12/17 02:46:37;;;;;;;30.07;13.27;;;;;;;;;;5048666;28;20177;-77
2021/12/17 02:49:02;;;;;;;35.87;12.03;;;;;;;;;;5058470;28;20405;-77
2021/12/17 02:51:28;;;;;;;26.33;13.33;;;;;;;;;;5028782;28;20214;-77
2021/12/17 02:53:53;;;;;;;25.00;12.97;;;;;;;;;;5050270;28;20242;-77
2021/12/17 02:56:19;;;;;;;25.07;12.63;;;;;;;;;;5032683;28;20178;-77
2021/12/17 02:58:44;;;;;;;32.20;12.10;;;;;;;;;;5032981;28;20236;-77
2021/12/17 03:01:12;;;;;;;33.00;13.17;;;;;;;;;;5032304;28;20174;-77
2021/12/17 03:03:38;;;;;;;30.53;13.10;;;;;;;;;;5035725;28;20186;-77
2021/12/17 03:06:03;;;;;;;31.97;13.77;;;;;;;;;;5048896;28;20182;-77
2021/12/17 03:08:29;;;;;;;23.90;11.87;;;;;;;;;;5031026;28;20184;-77
2021/12/17 03:10:55;;;;;;;28.33;12.50;;;;;;;;;;5049533;28;20182;-77
2021/12/17 03:13:22;;;;;;;25.53;12.67;;;;;;;;;;5034852;28;20277;-77
2021/12/17 03:23:40;;;;;;;23.47;11.83;;;;;;;;;;5050861;28;20259;-78
2021/12/17 03:26:07;;;;;;;24.60;11.63;;;;;;;;;;5049080;28;20363;-77
2021/12/17 03:28:33;;;;;;;42.53;12.90;;;;;;;;;;5041328;28;20197;-77
2021/12/17 03:30:58;;;;;;;17.40;8.50;;;;;;;;;;5034434;28;20273;-77
2021/12/17 03:33:24;;;;;;;73.37;14.33;;;;;;;;;;5032917;28;20202;-78
2021/12/17 03:35:49;;;;;;;5.70;5.00;;;;;;;;;;5031255;28;20186;-77
2021/12/17 03:38:15;;;;;;;105.47;15.60;;;;;;;;;;5032788;28;20178;-77
2021/12/17 03:40:42;;;;;;;54.33;13.97;;;;;;;;;;5035216;28;20205;-77
2021/12/17 03:43:12;;;;;;;182.97;19.93;;;;;;;;;;5016360;28;20246;-77
2021/12/17 03:45:38;;;;;;;81.87;14.23;;;;;;;;;;5013288;28;20192;-78
2021/12/17 03:48:03;;;;;;;65.50;13.33;;;;;;;;;;5006267;28;20189;-77
2021/12/17 03:50:28;;;;;;;126.43;17.43;;;;;;;;;;5014073;28;20179;-77
2021/12/17 03:52:54;;;;;;;200.90;19.80;;;;;;;;;;5013689;28;20210;-77
2021/12/17 03:55:19;;;;;;;49.03;11.13;;;;;;;;;;5012518;28;20175;-77
2021/12/17 03:57:44;;;;;;;102.80;13.97;;;;;;;;;;5013056;28;20187;-77
2021/12/17 04:00:11;;;;;;;105.37;14.23;;;;;;;;;;5011020;28;20206;-77
2021/12/17 04:02:37;;;;;;;149.73;17.00;;;;;;;;;;5013751;28;20181;-77
2021/12/17 04:05:03;;;;;;;85.73;10.90;;;;;;;;;;4998573;28;20180;-77
2021/12/17 04:07:28;;;;;;;42.30;12.70;;;;;;;;;;5012573;28;20275;-77
2021/12/17 04:09:53;;;;;;;167.90;17.10;;;;;;;;;;5012824;28;20322;-77
2021/12/17 04:12:23;;;;;;;209.33;18.43;;;;;;;;;;5013211;28;20210;-77
2021/12/17 04:14:49;;;;;;;182.40;19.40;;;;;;;;;;5012323;28;20184;-77
2021/12/17 04:17:24;;;;;;;223.73;20.70;;;;;;;;;;5012285;28;20178;-77
2021/12/17 04:19:49;;;;;;;189.77;18.17;;;;;;;;;;5010952;28;20266;-77
2021/12/17 04:22:17;;;;;;;66.80;10.70;;;;;;;;;;5013893;28;20306;-77
2021/12/17 04:24:42;;;;;;;98.93;13.93;;;;;;;;;;5010164;28;20192;-77
2021/12/17 04:27:07;;;;;;;120.53;13.67;;;;;;;;;;5013145;28;20184;-77
2021/12/17 04:29:39;;;;;;;93.20;11.40;;;;;;;;;;5012098;28;20186;-77
2021/12/17 04:32:04;;;;;;;76.17;11.60;;;;;;;;;;5007277;28;20195;-77
2021/12/17 04:34:30;;;;;;;151.20;14.20;;;;;;;;;;5012318;28;20187;-77
2021/12/17 04:36:56;;;;;;;107.60;12.87;;;;;;;;;;5012660;28;20178;-77
2021/12/17 04:39:23;;;;;;;188.50;17.77;;;;;;;;;;5013683;28;20249;-77
2021/12/17 04:44:20;;;;;;;136.83;13.03;;;;;;;;;;5028826;28;20246;-77
2021/12/17 04:47:03;;;;;;;56.50;10.60;;;;;;;;;;5029857;28;20198;-77
2021/12/17 04:57:42;;;;;;;30.43;6.60;;;;;;;;;;5024895;28;20254;-77
2021/12/17 05:00:12;;;;;;;203.47;20.33;;;;;;;;;;5029033;28;20268;-77
2021/12/17 05:02:42;;;;;;;34.03;7.30;;;;;;;;;;5031568;28;20175;-78
2021/12/17 05:05:09;;;;;;;158.73;15.87;;;;;;;;;;5026588;28;20174;-77
2021/12/17 05:07:37;;;;;;;53.47;9.67;;;;;;;;;;5028008;28;20174;-77
2021/12/17 05:20:49;;;;;;;18.80;12.43;;;;;;;;;;5025633;28;20232;-77
2021/12/17 05:23:15;;;;;;;17.63;9.83;;;;;;;;;;5030622;28;20187;-77
2021/12/17 05:25:40;;;;;;;13.90;9.57;;;;;;;;;;5035675;28;20206;-77
2021/12/17 05:28:05;;;;;;;12.87;9.03;;;;;;;;;;5033575;28;20185;-78
2021/12/17 05:30:34;;;;;;;14.90;9.37;;;;;;;;;;5025663;28;20185;-77
2021/12/17 05:33:01;;;;;;;14.07;9.90;;;;;;;;;;5033969;28;20213;-77
2021/12/17 05:35:27;;;;;;;13.27;9.37;;;;;;;;;;5031872;28;20185;-77
2021/12/17 05:37:52;;;;;;;13.77;9.67;;;;;;;;;;5028667;28;20179;-77
2021/12/17 05:40:18;;;;;;;15.73;10.60;;;;;;;;;;5026501;28;20225;-77
2021/12/17 05:42:43;;;;;;;23.40;16.17;;;;;;;;;;5015391;28;20231;-77
2021/12/17 05:45:21;;;;;;;17.43;11.10;;;;;;;;;;5010823;28;20176;-77
2021/12/17 05:47:47;;;;;;;15.60;9.23;;;;;;;;;;5010311;28;20206;-77
2021/12/17 05:50:12;;;;;;;16.23;9.97;;;;;;;;;;5011021;28;20274;-77
2021/12/17 05:52:37;;;;;;;14.10;10.13;;;;;;;;;;5010405;28;20234;-77
2021/12/17 05:55:03;;;;;;;15.13;10.53;;;;;;;;;;5010312;28;20206;-77
2021/12/17 05:57:28;;;;;;;14.97;9.60;;;;;;;;;;5007145;28;20206;-77
2021/12/17 05:59:53;;;;;;;14.10;9.37;;;;;;;;;;5008301;28;20444;-77
2021/12/17 06:02:19;;;;;;;14.40;9.57;;;;;;;;;;5008266;28;20191;-78
2021/12/17 06:04:45;;;;;;;15.83;11.57;;;;;;;;;;5008481;28;20203;-78
2021/12/17 06:07:10;;;;;;;17.10;10.17;;;;;;;;;;5010273;28;20213;-78
2021/12/17 06:09:35;;;;;;;16.90;11.73;;;;;;;;;;5011210;28;20182;-78
2021/12/17 06:12:01;;;;;;;20.63;12.40;;;;;;;;;;5012061;28;20191;-78
2021/12/17 06:14:26;;;;;;;14.67;10.17;;;;;;;;;;5012238;28;20168;-78
2021/12/17 06:16:51;;;;;;;16.40;11.27;;;;;;;;;;5010485;28;20290;-78
2021/12/17 06:19:19;;;;;;;17.23;10.70;;;;;;;;;;5011052;28;20176;-78
2021/12/17 06:21:48;;;;;;;16.20;11.33;;;;;;;;;;5010586;28;20183;-78
2021/12/17 06:24:14;;;;;;;18.43;11.80;;;;;;;;;;5011016;28;20184;-78
2021/12/17 06:26:39;;;;;;;20.87;11.90;;;;;;;;;;5010578;28;20176;-78
2021/12/17 06:29:04;;;;;;;16.37;11.73;;;;;;;;;;5010629;28;20175;-78
2021/12/17 06:31:30;;;;;;;16.30;12.37;;;;;;;;;;5010609;28;20198;-78
2021/12/17 06:33:55;;;;;;;17.53;11.80;;;;;;;;;;5010329;28;20269;-77
2021/12/17 06:36:20;;;;;;;18.43;12.47;;;;;;;;;;5011568;28;20171;-78
2021/12/17 06:38:45;;;;;;;19.77;11.47;;;;;;;;;;5010085;28;20190;-77
2021/12/17 06:41:10;;;;;;;16.33;10.63;;;;;;;;;;5010448;28;20183;-78
2021/12/17 06:43:41;;;;;;;13.63;10.13;;;;;;;;;;5010515;28;20235;-78
2021/12/17 06:48:57;;;;;;;15.60;11.13;;;;;;;;;;5010821;28;20175;-77
2021/12/17 06:59:47;;;;;;;17.17;11.53;;;;;;;;;;5007621;28;20176;-77
2021/12/17 07:09:09;;;;;;;13.27;8.63;;;;;;;;;;5009588;28;20211;-78
2021/12/17 07:10:36;;;;;;;16.43;14.57;;;;;;;;;;5003933;28;20210;-78
2021/12/17 07:32:20;;;;;;;13.17;9.00;;;;;;;;;;5010809;28;20280;-78
2021/12/17 07:39:48;;;;;;;13.40;9.37;;;;;;;;;;5009888;28;20891;-78
2021/12/17 07:42:13;;;;;;;14.33;9.83;;;;;;;;;;5019901;28;20230;-78
2021/12/17 07:44:38;;;;;;;10.63;7.67;;;;;;;;;;5029372;28;20396;-78
2021/12/17 07:47:04;;;;;;;15.73;9.47;;;;;;;;;;5030481;28;20202;-78
2021/12/17 07:49:29;;;;;;;14.57;9.73;;;;;;;;;;5030566;28;20266;-78
2021/12/17 07:51:54;;;;;;;13.13;9.43;;;;;;;;;;5038063;28;20191;-78
2021/12/17 07:54:20;;;;;;;16.57;9.47;;;;;;;;;;5028047;28;20179;-78
2021/12/17 07:56:45;;;;;;;13.77;9.67;;;;;;;;;;5027050;28;20171;-77
2021/12/17 07:59:12;;;;;;;21.23;14.20;;;;;;;;;;5028242;28;20179;-78
2021/12/17 08:01:38;;;;;;;14.23;9.50;;;;;;;;;;5025910;28;20183;-78
2021/12/17 08:04:05;;;;;;;14.93;9.93;;;;;;;;;;5028279;28;20178;-78
2021/12/17 08:06:30;;;;;;;15.30;10.83;;;;;;;;;;5028843;28;20175;-78
2021/12/17 08:08:55;;;;;;;13.63;9.70;;;;;;;;;;5027234;28;20166;-78
2021/12/17 08:11:22;;;;;;;10.57;7.73;;;;;;;;;;5031925;28;20205;-78
2021/12/17 08:13:47;;;;;;;15.80;11.07;;;;;;;;;;5030395;28;20182;-78
2021/12/17 08:16:33;;;;;;;17.60;10.83;;;;;;;;;;5036491;28;20187;-78
2021/12/17 08:27:11;;;;;;;13.43;9.37;;;;;;;;;;5035744;28;20202;-78
2021/12/17 08:29:51;;;;;;;14.57;9.97;;;;;;;;;;5029426;28;20179;-78
2021/12/17 08:32:16;;;;;;;13.30;9.20;;;;;;;;;;5032791;28;20359;-78
2021/12/17 08:34:42;;;;;;;12.27;10.03;;;;;;;;;;5034228;28;20210;-78
2021/12/17 08:37:07;;;;;;;12.07;9.17;;;;;;;;;;5031305;28;20171;-78
2021/12/17 08:39:32;;;;;;;13.77;10.13;;;;;;;;;;5031384;28;20179;-78
2021/12/17 08:41:59;;;;;;;13.70;9.23;;;;;;;;;;5038792;28;20218;-78
2021/12/17 08:44:25;;;;;;;11.27;8.73;;;;;;;;;;5035864;28;20193;-78
2021/12/17 08:46:51;;;;;;;12.60;9.30;;;;;;;;;;5036080;28;20174;-78
2021/12/17 08:49:16;;;;;;;13.13;9.70;;;;;;;;;;5055022;28;20536;-78
2021/12/17 08:51:42;;;;;;;13.47;9.20;;;;;;;;;;5035620;28;20231;-78
2021/12/17 08:54:08;;;;;;;13.87;10.07;;;;;;;;;;5036998;28;20177;-78
2021/12/17 08:56:34;;;;;;;7.63;5.67;;;;;;;;;;5036024;28;20178;-78
2021/12/17 08:59:01;;;;;;;12.87;9.50;;;;;;;;;;5045329;28;20174;-78
2021/12/17 09:01:26;;;;;;;12.33;8.50;;;;;;;;;;5034678;28;20180;-78
2021/12/17 09:03:51;;;;;;;13.00;9.47;;;;;;;;;;5044475;28;20175;-78
2021/12/17 09:06:16;;;;;;;13.67;8.87;;;;;;;;;;5037378;28;20202;-78
2021/12/17 09:08:42;;;;;;;13.30;10.13;;;;;;;;;;5041396;28;20201;-78
2021/12/17 09:11:07;;;;;;;15.57;10.10;;;;;;;;;;5039985;28;20178;-78
2021/12/17 09:13:33;;;;;;;13.67;10.30;;;;;;;;;;5036754;28;20267;-77
2021/12/17 09:15:59;;;;;;;14.20;10.10;;;;;;;;;;5035051;28;20182;-78
2021/12/17 09:18:25;;;;;;;14.57;9.57;;;;;;;;;;5035440;28;20316;-78
2021/12/17 09:20:51;;;;;;;13.50;10.30;;;;;;;;;;5035222;28;20269;-78
2021/12/17 09:23:16;;;;;;;13.70;9.33;;;;;;;;;;5035356;28;20182;-78
2021/12/17 09:25:44;;;;;;;13.77;9.93;;;;;;;;;;5034581;28;20316;-77
2021/12/17 09:28:10;;;;;;;15.43;10.20;;;;;;;;;;5051140;28;20178;-78
2021/12/17 09:30:35;;;;;;;17.33;8.73;;;;;;;;;;5035604;28;20185;-78
2021/12/17 09:33:00;;;;;;;14.57;9.70;;;;;;;;;;5037322;28;20205;-78
2021/12/17 09:35:26;;;;;;;16.33;11.17;;;;;;;;;;5038192;28;20178;-78
2021/12/17 09:37:51;;;;;;;13.27;10.47;;;;;;;;;;5033580;28;20186;-78
2021/12/17 09:40:17;;;;;;;14.97;9.87;;;;;;;;;;5032204;28;20175;-77
2021/12/17 09:42:44;;;;;;;14.57;11.03;;;;;;;;;;5024419;28;20235;-78
2021/12/17 09:45:10;;;;;;;15.53;10.53;;;;;;;;;;5016954;28;20225;-78
2021/12/17 09:47:35;;;;;;;13.67;9.63;;;;;;;;;;5020055;28;20179;-78
2021/12/17 09:50:01;;;;;;;12.70;9.67;;;;;;;;;;5023247;28;20175;-78
2021/12/17 09:52:26;;;;;;;13.33;9.87;;;;;;;;;;5013254;28;20225;-78
2021/12/17 09:54:52;;;;;;;15.13;10.30;;;;;;;;;;5024631;28;20205;-78
2021/12/17 09:57:19;;;;;;;12.90;9.10;;;;;;;;;;5015596;28;20171;-78
2021/12/17 09:59:44;;;;;;;14.67;10.73;;;;;;;;;;5012412;28;20176;-77
2021/12/17 10:02:10;;;;;;;18.07;11.13;;;;;;;;;;5010275;28;20190;-78
2021/12/17 10:04:36;;;;;;;13.70;10.80;;;;;;;;;;5011531;28;20183;-78
2021/12/17 10:07:19;;;;;;;12.53;9.83;;;;;;;;;;5009820;28;20185;-78
2021/12/17 10:09:56;;;;;;;12.73;9.03;;;;;;;;;;5018131;28;20202;-78
2021/12/17 10:12:41;;;;;;;11.60;9.03;;;;;;;;;;5016665;28;20228;-77
2021/12/17 10:15:12;;;;;;;13.47;9.57;;;;;;;;;;5008603;28;20190;-77
2021/12/17 10:17:50;;;;;;;13.53;9.73;;;;;;;;;;5019033;28;20252;-78
2021/12/17 10:20:15;;;;;;;12.17;8.90;;;;;;;;;;5005631;28;20187;-77
2021/12/17 10:22:43;;;;;;;19.10;11.87;;;;;;;;;;5011945;28;20186;-78
2021/12/17 10:25:11;;;;;;;14.07;9.77;;;;;;;;;;5008731;28;20179;-78
2021/12/17 10:27:38;;;;;;;13.40;9.57;;;;;;;;;;5021844;28;20179;-78
2021/12/17 10:30:21;;;;;;;12.67;8.43;;;;;;;;;;5012207;28;20464;-78
2021/12/17 10:32:48;;;;;;;14.80;9.53;;;;;;;;;;5011068;28;20203;-78
2021/12/17 10:35:16;;;;;;;14.83;9.30;;;;;;;;;;5013560;28;20274;-78
2021/12/17 10:37:43;;;;;;;13.63;9.17;;;;;;;;;;5012724;28;20191;-78
2021/12/17 10:40:20;;;;;;;14.27;9.23;;;;;;;;;;5021478;28;20168;-77
2021/12/17 10:42:54;;;;;;;12.10;8.77;;;;;;;;;;5028842;28;20230;-78
2021/12/17 10:45:25;;;;;;;12.93;8.90;;;;;;;;;;5030269;28;20212;-78
2021/12/17 10:48:27;;;;;;;13.00;9.50;;;;;;;;;;5029779;28;20183;-78
2021/12/17 10:51:14;;;;;;;11.13;8.87;;;;;;;;;;5029786;28;20255;-78
2021/12/17 10:53:53;;;;;;;11.83;7.90;;;;;;;;;;5028986;28;20477;-78
2021/12/17 10:56:19;;;;;;;9.87;7.13;;;;;;;;;;5031462;28;20178;-78
2021/12/17 10:58:58;;;;;;;11.67;8.80;;;;;;;;;;5029902;28;20174;-78
2021/12/17 11:01:33;;;;;;;13.03;7.30;;;;;;;;;;5030165;28;20194;-77
2021/12/17 11:04:09;;;;;;;12.87;8.27;;;;;;;;;;5030009;28;20199;-78
2021/12/17 11:06:51;;;;;;;9.80;6.50;;;;;;;;;;5030895;28;20175;-78
2021/12/17 11:09:35;;;;;;;10.70;8.00;;;;;;;;;;5030696;28;20270;-78
2021/12/17 11:12:17;;;;;;;8.77;7.30;;;;;;;;;;5022419;28;20196;-78
2021/12/17 11:14:42;;;;;;;8.57;6.47;;;;;;;;;;5036068;28;20174;-78
2021/12/17 11:17:11;;;;;;;10.57;6.90;;;;;;;;;;5030171;28;20296;-78
2021/12/17 11:19:37;;;;;;;9.17;7.17;;;;;;;;;;5030279;28;20175;-78
2021/12/17 11:22:05;;;;;;;12.80;7.67;;;;;;;;;;5028733;28;20236;-78
2021/12/17 11:24:30;;;;;;;9.47;6.73;;;;;;;;;;5030100;28;20178;-78
2021/12/17 11:26:56;;;;;;;12.23;8.47;;;;;;;;;;5029790;28;20217;-78
2021/12/17 11:29:21;;;;;;;11.83;8.37;;;;;;;;;;5029995;28;20175;-78
2021/12/17 11:31:47;;;;;;;11.77;8.40;;;;;;;;;;5029309;28;20253;-78
2021/12/17 11:34:12;;;;;;;28.47;8.27;;;;;;;;;;5029503;28;20533;-77
2021/12/17 11:36:38;;;;;;;9.67;6.17;;;;;;;;;;5029839;28;20183;-78
2021/12/17 11:39:23;;;;;;;10.80;7.27;;;;;;;;;;5028287;28;20175;-78
2021/12/17 11:41:57;;;;;;;12.67;8.17;;;;;;;;;;5027829;28;20266;-78
2021/12/17 11:44:28;;;;;;;14.53;8.20;;;;;;;;;;5010044;28;20182;-78
2021/12/17 11:47:03;;;;;;;8.67;6.17;;;;;;;;;;5017794;28;20190;-77
2021/12/17 11:49:34;;;;;;;25.33;8.60;;;;;;;;;;5013440;28;20165;-78
2021/12/17 11:52:00;;;;;;;11.20;8.00;;;;;;;;;;5018879;28;20205;-78
2021/12/17 11:54:29;;;;;;;13.33;9.20;;;;;;;;;;5017446;28;20179;-78
2021/12/17 11:57:03;;;;;;;16.27;8.20;;;;;;;;;;5013874;28;20274;-78
2021/12/17 11:59:30;;;;;;;17.93;7.63;;;;;;;;;;5009496;28;20179;-78
2021/12/17 12:02:01;;;;;;;14.77;7.70;;;;;;;;;;5016257;28;20176;-78
2021/12/17 12:04:32;;;;;;;10.03;7.43;;;;;;;;;;5020821;28;20636;-78
2021/12/17 12:07:00;;;;;;;11.57;7.60;;;;;;;;;;5013358;28;20175;-78
2021/12/17 12:09:54;;;;;;;8.73;6.57;;;;;;;;;;5013555;28;20176;-78
2021/12/17 12:12:19;;;;;;;9.27;6.33;;;;;;;;;;5021050;28;20206;-77
2021/12/17 12:14:44;;;;;;;13.97;6.97;;;;;;;;;;5017255;28;20175;-78
2021/12/17 12:17:10;;;;;;;19.93;8.40;;;;;;;;;;5013390;28;20235;-78
2021/12/17 12:19:50;;;;;;;11.13;6.57;;;;;;;;;;5013594;28;20237;-78
2021/12/17 12:22:28;;;;;;;8.57;7.00;;;;;;;;;;5018597;28;20187;-78
2021/12/17 12:25:12;;;;;;;16.57;8.47;;;;;;;;;;5016071;28;20235;-78
2021/12/17 12:27:44;;;;;;;10.70;7.50;;;;;;;;;;5014518;28;20177;-78
2021/12/17 12:30:09;;;;;;;10.67;7.17;;;;;;;;;;5018864;28;20183;-78
2021/12/17 12:32:34;;;;;;;9.60;6.30;;;;;;;;;;5012794;28;20195;-78
2021/12/17 12:35:06;;;;;;;9.73;6.47;;;;;;;;;;5005279;28;20181;-78
2021/12/17 12:37:31;;;;;;;12.10;5.57;;;;;;;;;;5020874;28;20203;-78
2021/12/17 12:39:58;;;;;;;8.27;6.30;;;;;;;;;;5013173;28;20218;-78
2021/12/17 12:42:23;;;;;;;11.00;7.77;;;;;;;;;;5014338;28;20246;-78
2021/12/17 12:44:49;;;;;;;9.53;7.40;;;;;;;;;;5012981;28;20273;-78
2021/12/17 12:47:20;;;;;;;22.63;8.90;;;;;;;;;;5008002;28;20219;-78
2021/12/17 12:49:46;;;;;;;9.67;6.77;;;;;;;;;;5013081;28;20187;-78
2021/12/17 12:52:20;;;;;;;8.93;6.93;;;;;;;;;;5012002;28;20185;-78
2021/12/17 12:54:48;;;;;;;12.87;7.60;;;;;;;;;;5012530;28;20242;-78
2021/12/17 12:57:22;;;;;;;10.80;7.60;;;;;;;;;;5011464;28;20179;-78
2021/12/17 12:59:50;;;;;;;14.93;9.80;;;;;;;;;;5011959;28;20182;-78
2021/12/17 13:02:15;;;;;;;24.70;9.83;;;;;;;;;;5012879;28;20176;-78
2021/12/17 13:04:41;;;;;;;13.63;8.10;;;;;;;;;;5011622;28;20183;-78
2021/12/17 13:07:06;;;;;;;79.50;20.43;;;;;;;;;;5011807;28;20173;-78
2021/12/17 13:09:31;;;;;;;10.93;8.53;;;;;;;;;;5011867;28;20206;-77
2021/12/17 13:11:56;;;;;;;166.20;25.40;;;;;;;;;;5011036;28;20228;-78
2021/12/17 13:14:25;;;;;;;14.63;8.50;;;;;;;;;;5014667;28;20200;-77
2021/12/17 13:17:29;;;;;;;11.57;7.43;;;;;;;;;;5010927;28;20175;-77
2021/12/17 13:22:54;;;;;;;19.37;9.20;;;;;;;;;;5012585;28;20195;-78
2021/12/17 13:25:26;;;;;;;14.13;9.50;;;;;;;;;;5006073;28;20367;-77
2021/12/17 13:27:53;;;;;;;12.83;8.27;;;;;;;;;;5012204;28;20201;-78
2021/12/17 13:30:23;;;;;;;10.53;7.93;;;;;;;;;;5011933;28;20179;-78
2021/12/17 13:32:50;;;;;;;13.20;7.50;;;;;;;;;;5011007;28;20188;-78
2021/12/17 13:35:16;;;;;;;10.03;7.93;;;;;;;;;;5013182;28;20175;-77
2021/12/17 13:37:41;;;;;;;9.77;7.17;;;;;;;;;;5011597;28;20176;-77
2021/12/17 13:40:09;;;;;;;8.73;6.77;;;;;;;;;;5011491;28;20271;-78
2021/12/17 13:42:38;;;;;;;47.07;10.80;;;;;;;;;;5040573;28;20248;-77
2021/12/17 13:45:07;;;;;;;8.83;6.97;;;;;;;;;;5034598;28;20170;-77
2021/12/17 13:47:34;;;;;;;10.50;7.37;;;;;;;;;;5034064;28;20250;-78
2021/12/17 13:50:09;;;;;;;14.23;6.10;;;;;;;;;;5034056;28;20177;-77
2021/12/17 13:52:54;;;;;;;33.83;10.17;;;;;;;;;;5035480;28;20239;-78
2021/12/17 13:55:21;;;;;;;21.47;8.83;;;;;;;;;;5029794;28;20283;-78
2021/12/17 13:57:47;;;;;;;13.73;7.70;;;;;;;;;;5035486;28;20305;-78
2021/12/17 14:00:14;;;;;;;11.40;7.63;;;;;;;;;;5040424;28;20188;-78
2021/12/17 14:02:41;;;;;;;48.73;10.93;;;;;;;;;;5034487;28;20177;-77
2021/12/17 14:05:08;;;;;;;9.40;7.00;;;;;;;;;;5034943;28;20205;-78
2021/12/17 14:07:34;;;;;;;11.57;7.63;;;;;;;;;;5037583;28;20261;-78
2021/12/17 14:10:02;;;;;;;9.73;6.53;;;;;;;;;;5032085;28;20174;-82
2021/12/17 14:12:31;;;;;;;8.33;6.40;;;;;;;;;;5029646;28;20204;-76
2021/12/17 14:15:01;;;;;;;12.63;7.13;;;;;;;;;;5048231;28;20177;-76
2021/12/17 14:17:40;;;;;;;24.77;8.40;;;;;;;;;;5051195;28;20180;-76
2021/12/17 14:20:07;;;;;;;10.57;7.00;;;;;;;;;;5037558;28;20227;-76
2021/12/17 14:22:34;;;;;;;9.47;6.70;;;;;;;;;;5040929;28;20192;-76
2021/12/17 14:25:00;;;;;;;10.57;7.43;;;;;;;;;;5048844;28;20185;-76
2021/12/17 14:27:44;;;;;;;11.17;6.37;;;;;;;;;;5050636;28;20178;-76
2021/12/17 14:30:10;;;;;;;18.53;7.37;;;;;;;;;;5026144;28;20184;-76
2021/12/17 14:32:46;;;;;;;14.87;7.77;;;;;;;;;;5054700;28;20487;-76
2021/12/17 14:35:12;;;;;;;9.57;6.97;;;;;;;;;;5050107;28;20167;-76
2021/12/17 14:37:50;;;;;;;10.57;7.03;;;;;;;;;;5059132;28;20240;-76
2021/12/17 14:40:37;;;;;;;14.97;7.00;;;;;;;;;;5045290;28;20189;-77
2021/12/17 14:43:04;;;;;;;8.93;6.83;;;;;;;;;;5016702;28;20224;-76
2021/12/17 14:45:42;;;;;;;11.43;7.23;;;;;;;;;;5006833;28;20769;-77
2021/12/17 14:48:14;;;;;;;9.20;7.13;;;;;;;;;;5003919;28;20501;-77
2021/12/17 15:01:50;;;;;;;7.90;6.60;;;;;;;;;;5009188;28;20193;-77
2021/12/17 15:04:15;;;;;;;10.53;7.93;;;;;;;;;;5008060;28;20274;-77
2021/12/17 15:06:40;;;;;;;18.43;7.90;;;;;;;;;;5009169;28;20260;-76
2021/12/17 15:09:05;;;;;;;12.17;7.97;;;;;;;;;;5007368;28;20172;-77
2021/12/17 15:11:37;;;;;;;12.73;9.03;;;;;;;;;;5008022;28;20187;-77
2021/12/17 15:14:02;;;;;;;10.03;8.83;;;;;;;;;;5005891;28;20456;-77
2021/12/17 15:16:27;;;;;;;15.43;10.33;;;;;;;;;;5008644;28;20554;-77
2021/12/17 15:18:53;;;;;;;13.13;10.13;;;;;;;;;;5007687;28;20172;-76
2021/12/17 15:21:18;;;;;;;12.43;9.67;;;;;;;;;;5008534;28;20183;-77
2021/12/17 15:23:43;;;;;;;11.37;9.33;;;;;;;;;;5008431;28;20175;-77
2021/12/17 15:26:09;;;;;;;11.37;8.40;;;;;;;;;;5006754;28;20266;-77
2021/12/17 15:28:34;;;;;;;13.97;10.00;;;;;;;;;;5009050;28;20183;-77
2021/12/17 15:31:04;;;;;;;13.87;10.50;;;;;;;;;;5009554;28;20266;-77
2021/12/17 15:33:29;;;;;;;15.13;9.83;;;;;;;;;;5010485;28;20222;-77
2021/12/17 15:35:55;;;;;;;13.83;9.87;;;;;;;;;;5006680;28;20183;-76
2021/12/17 15:38:23;;;;;;;12.30;9.13;;;;;;;;;;5009643;28;20187;-76
2021/12/17 15:40:48;;;;;;;12.73;9.90;;;;;;;;;;5009064;28;20183;-76
2021/12/17 15:43:15;;;;;;;15.83;10.20;;;;;;;;;;5022610;28;20230;-77
2021/12/17 15:45:41;;;;;;;11.73;8.90;;;;;;;;;;5025870;28;20181;-77
2021/12/17 15:48:07;;;;;;;9.23;8.00;;;;;;;;;;5028198;28;20201;-77
2021/12/17 15:50:32;;;;;;;12.43;9.83;;;;;;;;;;5028588;28;20182;-77
2021/12/17 15:52:57;;;;;;;13.83;9.07;;;;;;;;;;5025721;28;20214;-77
2021/12/17 15:55:23;;;;;;;12.30;9.30;;;;;;;;;;5027468;28;20175;-77
2021/12/17 15:57:49;;;;;;;12.70;9.43;;;;;;;;;;5028688;28;20217;-77
2021/12/17 16:00:16;;;;;;;12.47;9.43;;;;;;;;;;5027329;28;20178;-76
2021/12/17 16:02:42;;;;;;;12.90;9.77;;;;;;;;;;5027654;28;20193;-77
2021/12/17 16:05:09;;;;;;;11.33;9.27;;;;;;;;;;5025787;28;20233;-76
2021/12/17 16:07:34;;;;;;;12.57;10.17;;;;;;;;;;5040542;28;20247;-77
2021/12/17 16:22:58;;;;;;;18.07;11.57;;;;;;;;;;5027469;28;20260;-77
2021/12/17 16:25:23;;;;;;;16.27;11.07;;;;;;;;;;5022709;28;20184;-77
2021/12/17 16:27:49;;;;;;;14.00;11.70;;;;;;;;;;5024772;28;20186;-76
2021/12/17 16:30:14;;;;;;;13.03;10.50;;;;;;;;;;5027343;28;20183;-77
2021/12/17 16:32:40;;;;;;;13.87;11.20;;;;;;;;;;5024184;28;20258;-77
2021/12/17 16:35:05;;;;;;;14.13;11.73;;;;;;;;;;5023220;28;20171;-77
2021/12/17 16:37:30;;;;;;;12.30;10.27;;;;;;;;;;5020952;28;20194;-77
2021/12/17 16:39:58;;;;;;;13.07;10.90;;;;;;;;;;5023133;28;20163;-77
2021/12/17 16:42:23;;;;;;;14.53;11.40;;;;;;;;;;5035080;28;20238;-77
2021/12/17 16:47:23;;;;;;;13.57;10.30;;;;;;;;;;5042087;28;20240;-76
2021/12/17 16:49:49;;;;;;;13.43;10.80;;;;;;;;;;5028286;28;20265;-77
2021/12/17 16:52:14;;;;;;;12.77;11.07;;;;;;;;;;5049753;28;20316;-77
2021/12/17 16:54:39;;;;;;;13.17;10.40;;;;;;;;;;5048072;28;20175;-76
2021/12/17 16:57:04;;;;;;;12.00;10.27;;;;;;;;;;5029635;28;20257;-76
2021/12/17 16:59:29;;;;;;;13.90;10.60;;;;;;;;;;5026791;28;20266;-77
2021/12/17 17:01:55;;;;;;;14.30;10.17;;;;;;;;;;5026010;28;20263;-77
2021/12/17 17:04:20;;;;;;;23.03;12.17;;;;;;;;;;5029919;28;20190;-77
2021/12/17 17:06:45;;;;;;;12.43;9.50;;;;;;;;;;5027313;28;20187;-77
2021/12/17 17:09:11;;;;;;;11.97;10.27;;;;;;;;;;5036492;28;20182;-77
2021/12/17 17:11:39;;;;;;;15.00;11.73;;;;;;;;;;5034062;28;20176;-76
2021/12/17 17:14:04;;;;;;;12.97;9.97;;;;;;;;;;5053867;28;20197;-76
2021/12/17 17:16:29;;;;;;;13.33;10.00;;;;;;;;;;5035395;28;20231;-76
2021/12/17 17:18:55;;;;;;;13.97;10.87;;;;;;;;;;5032679;28;20235;-77
2021/12/17 17:21:20;;;;;;;13.63;10.37;;;;;;;;;;5037655;28;20182;-77
2021/12/17 17:23:46;;;;;;;12.90;10.33;;;;;;;;;;5032748;28;20201;-77
2021/12/17 17:26:13;;;;;;;13.40;9.97;;;;;;;;;;5035348;28;20178;-78
2021/12/17 17:28:41;;;;;;;15.03;10.20;;;;;;;;;;5034543;28;20178;-78
2021/12/17 17:31:07;;;;;;;14.57;12.00;;;;;;;;;;5033678;28;20179;-78
2021/12/17 17:33:32;;;;;;;13.07;10.20;;;;;;;;;;5034508;28;20209;-78
2021/12/17 17:35:57;;;;;;;15.17;11.67;;;;;;;;;;5034449;28;20170;-78
2021/12/17 17:38:22;;;;;;;14.60;11.20;;;;;;;;;;5034742;28;20169;-78
2021/12/17 17:40:50;;;;;;;13.80;11.83;;;;;;;;;;5034708;28;20179;-78